sensor_id;sensor_type;location;lat;lon;timestamp;pressure;altitude;pressure_sealevel;temperature;humidity
84043;BME280;74129;52.540;13.416;2024-01-27T00:07:50;101832.64;;;5.47;65.04
84043;BME280;74129;52.540;13.416;2024-01-27T00:29:06;101840.88;;;5.33;64.70
84043;BME280;74129;52.540;13.416;2024-01-27T00:34:56;101862.71;;;5.30;64.55
84043;BME280;74129;52.540;13.416;2024-01-27T00:37:50;101860.52;;;5.28;64.57
84043;BME280;74129;52.540;13.416;2024-01-27T00:50:34;101869.05;;;5.21;63.86
84043;BME280;74129;52.540;13.416;2024-01-27T00:53:14;101869.06;;;5.25;64.04
84043;BME280;74129;52.540;13.416;2024-01-27T00:56:31;101880.02;;;5.24;63.81
84043;BME280;74129;52.540;13.416;2024-01-27T01:02:09;101887.48;;;5.27;63.73
84043;BME280;74129;52.540;13.416;2024-01-27T01:05:11;101870.70;;;5.25;63.62
84043;BME280;74129;52.540;13.416;2024-01-27T01:07:53;101869.30;;;5.24;63.70
84043;BME280;74129;52.540;13.416;2024-01-27T01:13:10;101885.05;;;5.28;63.50
84043;BME280;74129;52.540;13.416;2024-01-27T01:22:37;101901.94;;;5.29;63.11
84043;BME280;74129;52.540;13.416;2024-01-27T01:25:22;101902.98;;;5.30;62.98
84043;BME280;74129;52.540;13.416;2024-01-27T01:37:41;101911.14;;;5.23;62.81
84043;BME280;74129;52.540;13.416;2024-01-27T01:46:49;101909.79;;;5.19;62.74
84043;BME280;74129;52.540;13.416;2024-01-27T02:02:27;101909.73;;;5.08;63.45
84043;BME280;74129;52.540;13.416;2024-01-27T02:10:34;101929.23;;;5.13;63.66
84043;BME280;74129;52.540;13.416;2024-01-27T02:28:44;101956.17;;;5.17;63.89
84043;BME280;74129;52.540;13.416;2024-01-27T02:31:25;101969.06;;;5.19;64.12
84043;BME280;74129;52.540;13.416;2024-01-27T02:34:17;101952.02;;;5.19;64.32
84043;BME280;74129;52.540;13.416;2024-01-27T02:36:57;101953.67;;;5.18;64.52
84043;BME280;74129;52.540;13.416;2024-01-27T02:42:52;101964.02;;;5.16;64.57
84043;BME280;74129;52.540;13.416;2024-01-27T02:45:33;101968.64;;;5.13;64.73
84043;BME280;74129;52.540;13.416;2024-01-27T02:51:11;101965.48;;;5.11;64.97
84043;BME280;74129;52.540;13.416;2024-01-27T02:54:06;101966.80;;;5.08;64.96
84043;BME280;74129;52.540;13.416;2024-01-27T03:00:09;101956.91;;;5.10;64.93
84043;BME280;74129;52.540;13.416;2024-01-27T03:03:05;101973.69;;;5.11;64.99
84043;BME280;74129;52.540;13.416;2024-01-27T03:09:04;101976.32;;;5.10;64.90
84043;BME280;74129;52.540;13.416;2024-01-27T03:12:04;101971.02;;;5.10;64.99
84043;BME280;74129;52.540;13.416;2024-01-27T03:14:47;101983.07;;;5.09;65.00
84043;BME280;74129;52.540;13.416;2024-01-27T03:17:38;101983.90;;;5.10;64.86
84043;BME280;74129;52.540;13.416;2024-01-27T03:20:26;101990.21;;;5.10;64.80
84043;BME280;74129;52.540;13.416;2024-01-27T03:23:11;101988.48;;;5.06;65.05
84043;BME280;74129;52.540;13.416;2024-01-27T03:26:05;102001.82;;;5.03;65.13
84043;BME280;74129;52.540;13.416;2024-01-27T03:28:59;101996.23;;;5.01;65.21
84043;BME280;74129;52.540;13.416;2024-01-27T03:31:55;101996.17;;;4.95;65.33
84043;BME280;74129;52.540;13.416;2024-01-27T03:34:44;101996.42;;;4.93;65.22
84043;BME280;74129;52.540;13.416;2024-01-27T03:37:32;101994.08;;;4.86;65.40
84043;BME280;74129;52.540;13.416;2024-01-27T03:40:31;101999.17;;;4.82;65.48
84043;BME280;74129;52.540;13.416;2024-01-27T03:43:32;101993.05;;;4.81;65.71
84043;BME280;74129;52.540;13.416;2024-01-27T03:46:20;101990.27;;;4.79;65.67
84043;BME280;74129;52.540;13.416;2024-01-27T03:48:56;101983.61;;;4.73;66.06
84043;BME280;74129;52.540;13.416;2024-01-27T03:51:52;101996.28;;;4.68;66.14
84043;BME280;74129;52.540;13.416;2024-01-27T03:54:41;102008.29;;;4.62;66.32
84043;BME280;74129;52.540;13.416;2024-01-27T03:57:32;102002.20;;;4.58;66.60
84043;BME280;74129;52.540;13.416;2024-01-27T04:00:24;102012.92;;;4.56;66.82
84043;BME280;74129;52.540;13.416;2024-01-27T04:03:23;102016.44;;;4.53;66.68
84043;BME280;74129;52.540;13.416;2024-01-27T04:06:20;102020.36;;;4.50;66.85
84043;BME280;74129;52.540;13.416;2024-01-27T04:09:12;102027.94;;;4.48;67.30
84043;BME280;74129;52.540;13.416;2024-01-27T04:15:17;102023.88;;;4.40;67.37
84043;BME280;74129;52.540;13.416;2024-01-27T04:18:20;102029.84;;;4.38;67.51
84043;BME280;74129;52.540;13.416;2024-01-27T04:21:00;102025.75;;;4.37;67.27
84043;BME280;74129;52.540;13.416;2024-01-27T04:24:14;102042.46;;;4.38;67.51
84043;BME280;74129;52.540;13.416;2024-01-27T04:26:52;102041.86;;;4.38;67.89
84043;BME280;74129;52.540;13.416;2024-01-27T04:29:27;102049.73;;;4.37;68.14
84043;BME280;74129;52.540;13.416;2024-01-27T04:32:18;102046.23;;;4.34;68.00
84043;BME280;74129;52.540;13.416;2024-01-27T04:35:10;102048.54;;;4.35;68.08
84043;BME280;74129;52.540;13.416;2024-01-27T04:37:51;102060.83;;;4.36;68.26
84043;BME280;74129;52.540;13.416;2024-01-27T04:40:52;102074.00;;;4.39;68.38
84043;BME280;74129;52.540;13.416;2024-01-27T04:43:29;102079.38;;;4.40;68.36
84043;BME280;74129;52.540;13.416;2024-01-27T04:46:05;102085.48;;;4.43;68.36
84043;BME280;74129;52.540;13.416;2024-01-27T04:49:00;102089.00;;;4.46;68.32
84043;BME280;74129;52.540;13.416;2024-01-27T04:52:02;102095.20;;;4.49;68.51
84043;BME280;74129;52.540;13.416;2024-01-27T04:54:50;102097.65;;;4.51;68.50
84043;BME280;74129;52.540;13.416;2024-01-27T04:57:33;102095.09;;;4.52;68.53
84043;BME280;74129;52.540;13.416;2024-01-27T05:00:08;102104.67;;;4.50;68.51
84043;BME280;74129;52.540;13.416;2024-01-27T05:03:05;102098.48;;;4.55;68.61
84043;BME280;74129;52.540;13.416;2024-01-27T05:08:53;102108.70;;;4.62;68.31
84043;BME280;74129;52.540;13.416;2024-01-27T05:11:37;102109.63;;;4.63;68.45
84043;BME280;74129;52.540;13.416;2024-01-27T05:14:31;102113.84;;;4.65;68.72
84043;BME280;74129;52.540;13.416;2024-01-27T05:17:15;102128.48;;;4.66;68.41
84043;BME280;74129;52.540;13.416;2024-01-27T05:20:01;102126.50;;;4.65;68.61
84043;BME280;74129;52.540;13.416;2024-01-27T05:22:59;102128.10;;;4.65;68.65
84043;BME280;74129;52.540;13.416;2024-01-27T05:25:51;102130.84;;;4.64;68.69
84043;BME280;74129;52.540;13.416;2024-01-27T05:28:43;102133.34;;;4.59;68.79
84043;BME280;74129;52.540;13.416;2024-01-27T05:31:20;102128.46;;;4.62;68.84
84043;BME280;74129;52.540;13.416;2024-01-27T05:33:57;102126.39;;;4.61;69.06
84043;BME280;74129;52.540;13.416;2024-01-27T05:36:45;102128.29;;;4.62;69.08
84043;BME280;74129;52.540;13.416;2024-01-27T05:39:33;102137.94;;;4.63;68.94
84043;BME280;74129;52.540;13.416;2024-01-27T05:42:23;102135.96;;;4.64;68.85
84043;BME280;74129;52.540;13.416;2024-01-27T05:45:25;102139.80;;;4.63;68.86
84043;BME280;74129;52.540;13.416;2024-01-27T05:48:20;102137.23;;;4.64;69.00
84043;BME280;74129;52.540;13.416;2024-01-27T05:51:17;102133.77;;;4.65;69.13
84043;BME280;74129;52.540;13.416;2024-01-27T05:54:06;102134.72;;;4.61;68.94
84043;BME280;74129;52.540;13.416;2024-01-27T05:56:47;102140.33;;;4.65;68.99
84043;BME280;74129;52.540;13.416;2024-01-27T05:59:18;102150.84;;;4.63;68.97
84043;BME280;74129;52.540;13.416;2024-01-27T06:01:56;102147.39;;;4.64;69.06
84043;BME280;74129;52.540;13.416;2024-01-27T06:04:44;102168.14;;;4.67;68.93
84043;BME280;74129;52.540;13.416;2024-01-27T06:07:25;102152.20;;;4.65;69.07
84043;BME280;74129;52.540;13.416;2024-01-27T06:10:14;102169.84;;;4.74;68.83
84043;BME280;74129;52.540;13.416;2024-01-27T06:13:01;102168.83;;;4.76;68.94
84043;BME280;74129;52.540;13.416;2024-01-27T06:15:50;102167.42;;;4.76;68.89
84043;BME280;74129;52.540;13.416;2024-01-27T06:21:50;102176.23;;;4.80;68.83
84043;BME280;74129;52.540;13.416;2024-01-27T06:24:43;102169.88;;;4.78;68.89
84043;BME280;74129;52.540;13.416;2024-01-27T06:27:26;102177.42;;;4.85;68.83
84043;BME280;74129;52.540;13.416;2024-01-27T06:30:17;102193.45;;;4.87;68.78
84043;BME280;74129;52.540;13.416;2024-01-27T06:33:04;102202.36;;;4.86;68.94
84043;BME280;74129;52.540;13.416;2024-01-27T06:35:44;102187.50;;;4.89;68.86
84043;BME280;74129;52.540;13.416;2024-01-27T06:38:36;102193.86;;;4.91;68.82
84043;BME280;74129;52.540;13.416;2024-01-27T06:41:08;102194.11;;;4.93;68.85
84043;BME280;74129;52.540;13.416;2024-01-27T06:43:46;102199.99;;;4.94;68.85
84043;BME280;74129;52.540;13.416;2024-01-27T06:46:35;102206.98;;;4.95;69.12
84043;BME280;74129;52.540;13.416;2024-01-27T06:49:15;102222.48;;;4.95;69.01
84043;BME280;74129;52.540;13.416;2024-01-27T06:52:11;102222.88;;;4.95;69.09
84043;BME280;74129;52.540;13.416;2024-01-27T06:54:38;102230.13;;;4.95;69.19
84043;BME280;74129;52.540;13.416;2024-01-27T06:57:25;102245.19;;;4.99;69.20
84043;BME280;74129;52.540;13.416;2024-01-27T06:59:53;102253.17;;;5.02;69.00
84043;BME280;74129;52.540;13.416;2024-01-27T07:02:24;102251.73;;;5.02;69.23
84043;BME280;74129;52.540;13.416;2024-01-27T07:04:53;102263.65;;;5.01;69.00
84043;BME280;74129;52.540;13.416;2024-01-27T07:07:35;102258.49;;;4.99;68.99
84043;BME280;74129;52.540;13.416;2024-01-27T07:10:06;102263.29;;;5.01;69.03
84043;BME280;74129;52.540;13.416;2024-01-27T07:13:05;102265.85;;;5.05;69.07
84043;BME280;74129;52.540;13.416;2024-01-27T07:15:52;102272.67;;;5.07;68.98
84043;BME280;74129;52.540;13.416;2024-01-27T07:18:35;102276.89;;;5.05;69.01
84043;BME280;74129;52.540;13.416;2024-01-27T07:21:03;102281.73;;;5.07;69.13
84043;BME280;74129;52.540;13.416;2024-01-27T07:23:46;102285.28;;;5.06;69.14
84043;BME280;74129;52.540;13.416;2024-01-27T07:26:29;102281.33;;;5.05;69.08
84043;BME280;74129;52.540;13.416;2024-01-27T07:29:15;102283.58;;;5.00;69.21
84043;BME280;74129;52.540;13.416;2024-01-27T07:32:07;102292.77;;;5.03;69.16
84043;BME280;74129;52.540;13.416;2024-01-27T07:34:42;102304.75;;;5.05;69.33
84043;BME280;74129;52.540;13.416;2024-01-27T07:37:09;102306.15;;;5.05;69.27
84043;BME280;74129;52.540;13.416;2024-01-27T07:39:36;102302.55;;;5.06;69.27
84043;BME280;74129;52.540;13.416;2024-01-27T07:42:14;102305.80;;;5.08;69.39
84043;BME280;74129;52.540;13.416;2024-01-27T07:44:48;102316.20;;;5.11;69.16
84043;BME280;74129;52.540;13.416;2024-01-27T07:47:22;102320.11;;;5.12;69.18
84043;BME280;74129;52.540;13.416;2024-01-27T07:49:59;102315.15;;;5.13;69.19
84043;BME280;74129;52.540;13.416;2024-01-27T07:52:34;102322.11;;;5.18;69.06
84043;BME280;74129;52.540;13.416;2024-01-27T07:55:12;102328.67;;;5.18;69.07
84043;BME280;74129;52.540;13.416;2024-01-27T07:57:43;102323.85;;;5.22;69.02
84043;BME280;74129;52.540;13.416;2024-01-27T08:00:54;102332.64;;;5.24;68.85
84043;BME280;74129;52.540;13.416;2024-01-27T08:03:31;102334.01;;;5.26;68.90
84043;BME280;74129;52.540;13.416;2024-01-27T08:06:04;102341.44;;;5.26;68.90
84043;BME280;74129;52.540;13.416;2024-01-27T08:08:43;102341.27;;;5.26;69.01
84043;BME280;74129;52.540;13.416;2024-01-27T08:11:29;102345.89;;;5.34;68.88
84043;BME280;74129;52.540;13.416;2024-01-27T08:14:17;102349.20;;;5.36;68.85
84043;BME280;74129;52.540;13.416;2024-01-27T08:16:51;102355.23;;;5.38;68.71
84043;BME280;74129;52.540;13.416;2024-01-27T08:19:43;102344.48;;;5.39;68.65
84043;BME280;74129;52.540;13.416;2024-01-27T08:22:13;102347.79;;;5.39;68.70
84043;BME280;74129;52.540;13.416;2024-01-27T08:24:47;102354.40;;;5.42;68.67
84043;BME280;74129;52.540;13.416;2024-01-27T08:27:14;102355.50;;;5.46;68.64
84043;BME280;74129;52.540;13.416;2024-01-27T08:36:39;102355.98;;;5.52;68.27
84043;BME280;74129;52.540;13.416;2024-01-27T08:42:13;102376.58;;;5.58;68.13
84043;BME280;74129;52.540;13.416;2024-01-27T08:45:40;102370.31;;;5.57;68.18
84043;BME280;74129;52.540;13.416;2024-01-27T08:49:00;102377.00;;;5.63;68.06
84043;BME280;74129;52.540;13.416;2024-01-27T08:52:23;102379.18;;;5.68;67.89
84043;BME280;74129;52.540;13.416;2024-01-27T08:55:30;102384.66;;;5.67;67.90
84043;BME280;74129;52.540;13.416;2024-01-27T08:58:58;102376.98;;;5.68;67.86
84043;BME280;74129;52.540;13.416;2024-01-27T09:08:29;102389.27;;;5.84;67.64
84043;BME280;74129;52.540;13.416;2024-01-27T09:14:17;102382.05;;;5.93;67.48
84043;BME280;74129;52.540;13.416;2024-01-27T09:17:16;102385.84;;;6.01;67.43
84043;BME280;74129;52.540;13.416;2024-01-27T09:19:56;102391.23;;;6.02;66.97
84043;BME280;74129;52.540;13.416;2024-01-27T09:23:05;102397.80;;;6.08;67.01
84043;BME280;74129;52.540;13.416;2024-01-27T09:25:59;102398.49;;;6.11;66.69
84043;BME280;74129;52.540;13.416;2024-01-27T09:28:50;102401.39;;;6.14;66.67
84043;BME280;74129;52.540;13.416;2024-01-27T09:31:34;102408.73;;;6.11;66.56
84043;BME280;74129;52.540;13.416;2024-01-27T09:34:28;102414.71;;;6.15;66.46
84043;BME280;74129;52.540;13.416;2024-01-27T09:37:20;102409.67;;;6.13;66.32
84043;BME280;74129;52.540;13.416;2024-01-27T09:43:22;102429.36;;;6.16;66.16
84043;BME280;74129;52.540;13.416;2024-01-27T09:46:44;102419.50;;;6.18;66.16
84043;BME280;74129;52.540;13.416;2024-01-27T09:49:31;102422.73;;;6.22;66.14
84043;BME280;74129;52.540;13.416;2024-01-27T09:52:14;102422.45;;;6.23;66.09
84043;BME280;74129;52.540;13.416;2024-01-27T09:54:46;102429.23;;;6.29;66.10
84043;BME280;74129;52.540;13.416;2024-01-27T09:57:42;102441.20;;;6.31;65.84
84043;BME280;74129;52.540;13.416;2024-01-27T10:00:47;102431.25;;;6.28;65.81
84043;BME280;74129;52.540;13.416;2024-01-27T10:03:30;102435.34;;;6.35;65.82
84043;BME280;74129;52.540;13.416;2024-01-27T10:06:05;102447.07;;;6.38;65.52
84043;BME280;74129;52.540;13.416;2024-01-27T10:08:59;102452.71;;;6.38;65.23
84043;BME280;74129;52.540;13.416;2024-01-27T10:15:03;102448.77;;;6.42;65.33
84043;BME280;74129;52.540;13.416;2024-01-27T10:18:03;102450.43;;;6.45;65.15
84043;BME280;74129;52.540;13.416;2024-01-27T10:24:07;102449.33;;;6.50;65.21
84043;BME280;74129;52.540;13.416;2024-01-27T10:45:54;102461.63;;;6.62;64.37
84043;BME280;74129;52.540;13.416;2024-01-27T10:48:36;102477.03;;;6.60;64.40
84043;BME280;74129;52.540;13.416;2024-01-27T10:51:11;102465.47;;;6.59;64.74
84043;BME280;74129;52.540;13.416;2024-01-27T10:54:02;102462.50;;;6.58;64.63
84043;BME280;74129;52.540;13.416;2024-01-27T10:56:35;102466.49;;;6.60;64.52
84043;BME280;74129;52.540;13.416;2024-01-27T11:29:23;102478.52;;;6.85;63.63
84043;BME280;74129;52.540;13.416;2024-01-27T11:32:38;102484.27;;;6.83;63.59
84043;BME280;74129;52.540;13.416;2024-01-27T11:35:46;102497.36;;;6.75;63.78
84043;BME280;74129;52.540;13.416;2024-01-27T11:38:35;102495.30;;;6.72;63.90
84043;BME280;74129;52.540;13.416;2024-01-27T11:41:10;102486.19;;;6.70;64.26
84043;BME280;74129;52.540;13.416;2024-01-27T11:46:51;102493.51;;;6.73;64.42
84043;BME280;74129;52.540;13.416;2024-01-27T11:56:39;102499.50;;;6.69;64.92
84043;BME280;74129;52.540;13.416;2024-01-27T11:59:31;102495.62;;;6.69;64.91
84043;BME280;74129;52.540;13.416;2024-01-27T12:14:54;102526.38;;;6.89;64.58
84043;BME280;74129;52.540;13.416;2024-01-27T12:17:39;102524.88;;;6.87;64.70
84043;BME280;74129;52.540;13.416;2024-01-27T12:20:56;102536.27;;;6.92;64.50
84043;BME280;74129;52.540;13.416;2024-01-27T12:24:00;102528.34;;;6.88;64.62
84043;BME280;74129;52.540;13.416;2024-01-27T12:29:52;102548.34;;;6.89;64.37
84043;BME280;74129;52.540;13.416;2024-01-27T12:38:35;102551.63;;;6.85;64.46
84043;BME280;74129;52.540;13.416;2024-01-27T12:45:07;102552.45;;;7.01;64.15
84043;BME280;74129;52.540;13.416;2024-01-27T13:00:24;102558.47;;;7.34;62.13
84043;BME280;74129;52.540;13.416;2024-01-27T13:03:33;102561.45;;;7.39;61.87
84043;BME280;74129;52.540;13.416;2024-01-27T13:10:13;102553.93;;;7.58;61.92
84043;BME280;74129;52.540;13.416;2024-01-27T13:12:55;102549.90;;;7.73;61.53
84043;BME280;74129;52.540;13.416;2024-01-27T13:15:39;102541.85;;;7.75;60.74
84043;BME280;74129;52.540;13.416;2024-01-27T13:18:25;102549.02;;;7.74;61.03
84043;BME280;74129;52.540;13.416;2024-01-27T13:21:33;102551.60;;;7.77;61.08
84043;BME280;74129;52.540;13.416;2024-01-27T13:24:19;102563.30;;;7.84;60.69
84043;BME280;74129;52.540;13.416;2024-01-27T13:26:58;102558.94;;;7.83;60.43
84043;BME280;74129;52.540;13.416;2024-01-27T13:29:50;102564.55;;;7.81;61.01
84043;BME280;74129;52.540;13.416;2024-01-27T13:32:40;102562.10;;;7.88;61.17
84043;BME280;74129;52.540;13.416;2024-01-27T13:35:39;102566.98;;;8.01;60.86
84043;BME280;74129;52.540;13.416;2024-01-27T13:38:32;102577.55;;;8.08;60.74
84043;BME280;74129;52.540;13.416;2024-01-27T13:41:28;102575.68;;;8.04;60.38
84043;BME280;74129;52.540;13.416;2024-01-27T13:54:01;102582.92;;;7.77;60.50
84043;BME280;74129;52.540;13.416;2024-01-27T13:57:32;102572.43;;;7.78;60.94
84043;BME280;74129;52.540;13.416;2024-01-27T14:01:20;102575.35;;;7.88;61.06
84043;BME280;74129;52.540;13.416;2024-01-27T14:27:13;102585.94;;;7.68;61.85
84043;BME280;74129;52.540;13.416;2024-01-27T14:30:24;102586.20;;;7.72;61.87
84043;BME280;74129;52.540;13.416;2024-01-27T14:36:35;102598.58;;;7.73;61.83
84043;BME280;74129;52.540;13.416;2024-01-27T14:42:25;102599.70;;;7.71;62.19
84043;BME280;74129;52.540;13.416;2024-01-27T14:45:06;102602.04;;;7.74;61.93
84043;BME280;74129;52.540;13.416;2024-01-27T14:47:40;102609.14;;;7.78;62.08
84043;BME280;74129;52.540;13.416;2024-01-27T14:50:18;102610.30;;;7.75;61.94
84043;BME280;74129;52.540;13.416;2024-01-27T14:52:51;102611.83;;;7.69;61.98
84043;BME280;74129;52.540;13.416;2024-01-27T14:55:48;102608.03;;;7.69;61.99
84043;BME280;74129;52.540;13.416;2024-01-27T15:01:57;102614.44;;;7.67;62.32
84043;BME280;74129;52.540;13.416;2024-01-27T15:05:15;102630.52;;;7.67;61.78
84043;BME280;74129;52.540;13.416;2024-01-27T15:34:25;102647.73;;;7.61;62.32
84043;BME280;74129;52.540;13.416;2024-01-27T15:37:45;102644.31;;;7.58;62.48
84043;BME280;74129;52.540;13.416;2024-01-27T15:40:57;102642.04;;;7.52;62.12
84043;BME280;74129;52.540;13.416;2024-01-27T15:44:14;102640.48;;;7.44;62.44
84043;BME280;74129;52.540;13.416;2024-01-27T15:47:06;102647.65;;;7.41;62.51
84043;BME280;74129;52.540;13.416;2024-01-27T15:49:50;102639.35;;;7.34;62.60
84043;BME280;74129;52.540;13.416;2024-01-27T16:05:57;102669.42;;;7.16;62.72
84043;BME280;74129;52.540;13.416;2024-01-27T16:13:08;102683.80;;;7.11;62.95
84043;BME280;74129;52.540;13.416;2024-01-27T16:48:04;102702.85;;;6.78;63.88
84043;BME280;74129;52.540;13.416;2024-01-27T16:53:58;102703.97;;;6.69;63.78
84043;BME280;74129;52.540;13.416;2024-01-27T17:03:40;102709.26;;;6.55;64.01
84043;BME280;74129;52.540;13.416;2024-01-27T17:09:59;102705.22;;;6.47;63.97
84043;BME280;74129;52.540;13.416;2024-01-27T17:12:42;102704.64;;;6.46;64.11
84043;BME280;74129;52.540;13.416;2024-01-27T17:25:18;102701.88;;;6.46;64.16
84043;BME280;74129;52.540;13.416;2024-01-27T17:28:14;102705.30;;;6.44;64.18
84043;BME280;74129;52.540;13.416;2024-01-27T17:31:23;102696.40;;;6.39;63.99
84043;BME280;74129;52.540;13.416;2024-01-27T17:34:09;102707.52;;;6.40;64.06
84043;BME280;74129;52.540;13.416;2024-01-27T17:37:05;102709.77;;;6.38;64.04
84043;BME280;74129;52.540;13.416;2024-01-27T17:46:53;102722.36;;;6.34;64.09
84043;BME280;74129;52.540;13.416;2024-01-27T17:49:55;102719.84;;;6.28;64.05
84043;BME280;74129;52.540;13.416;2024-01-27T17:52:30;102724.95;;;6.27;64.08
84043;BME280;74129;52.540;13.416;2024-01-27T17:55:37;102729.08;;;6.24;64.00
84043;BME280;74129;52.540;13.416;2024-01-27T17:58:22;102732.37;;;6.22;64.04
84043;BME280;74129;52.540;13.416;2024-01-27T18:01:23;102734.80;;;6.21;64.07
84043;BME280;74129;52.540;13.416;2024-01-27T18:04:02;102734.70;;;6.20;64.19
84043;BME280;74129;52.540;13.416;2024-01-27T18:07:00;102729.75;;;6.17;64.19
84043;BME280;74129;52.540;13.416;2024-01-27T18:09:32;102732.55;;;6.16;64.25
84043;BME280;74129;52.540;13.416;2024-01-27T18:12:03;102733.30;;;6.15;64.11
84043;BME280;74129;52.540;13.416;2024-01-27T18:14:35;102731.77;;;6.15;64.37
84043;BME280;74129;52.540;13.416;2024-01-27T18:17:02;102742.38;;;6.15;64.27
84043;BME280;74129;52.540;13.416;2024-01-27T18:19:32;102745.32;;;6.16;64.32
84043;BME280;74129;52.540;13.416;2024-01-27T18:22:02;102745.12;;;6.15;64.26
84043;BME280;74129;52.540;13.416;2024-01-27T18:24:47;102743.85;;;6.13;64.47
84043;BME280;74129;52.540;13.416;2024-01-27T18:27:38;102745.02;;;6.14;64.60
84043;BME280;74129;52.540;13.416;2024-01-27T18:30:25;102747.46;;;6.11;64.53
84043;BME280;74129;52.540;13.416;2024-01-27T18:33:24;102751.18;;;6.10;64.54
84043;BME280;74129;52.540;13.416;2024-01-27T18:36:27;102753.23;;;6.08;64.70
84043;BME280;74129;52.540;13.416;2024-01-27T18:39:34;102759.88;;;6.15;66.02
84043;BME280;74129;52.540;13.416;2024-01-27T18:42:46;102766.87;;;6.15;64.94
84043;BME280;74129;52.540;13.416;2024-01-27T18:45:58;102774.95;;;6.14;64.88
84043;BME280;74129;52.540;13.416;2024-01-27T18:55:08;102790.88;;;6.13;64.75
84043;BME280;74129;52.540;13.416;2024-01-27T18:57:58;102795.23;;;6.11;64.80
84043;BME280;74129;52.540;13.416;2024-01-27T19:00:24;102792.52;;;6.09;64.84
84043;BME280;74129;52.540;13.416;2024-01-27T19:06:14;102793.51;;;6.02;64.81
84043;BME280;74129;52.540;13.416;2024-01-27T19:16:04;102800.63;;;5.87;65.17
84043;BME280;74129;52.540;13.416;2024-01-27T19:18:31;102807.16;;;5.88;65.33
84043;BME280;74129;52.540;13.416;2024-01-27T19:21:18;102804.10;;;5.85;65.35
84043;BME280;74129;52.540;13.416;2024-01-27T19:24:20;102803.70;;;5.82;65.56
84043;BME280;74129;52.540;13.416;2024-01-27T19:27:30;102807.52;;;5.79;65.66
84043;BME280;74129;52.540;13.416;2024-01-27T19:30:25;102804.61;;;5.74;65.62
84043;BME280;74129;52.540;13.416;2024-01-27T19:33:19;102804.11;;;5.72;65.90
84043;BME280;74129;52.540;13.416;2024-01-27T19:36:00;102803.98;;;5.68;65.84
84043;BME280;74129;52.540;13.416;2024-01-27T19:41:10;102816.02;;;5.62;65.96
84043;BME280;74129;52.540;13.416;2024-01-27T19:44:05;102816.16;;;5.60;66.01
84043;BME280;74129;52.540;13.416;2024-01-27T19:47:03;102817.73;;;5.58;66.11
84043;BME280;74129;52.540;13.416;2024-01-27T19:49:37;102820.54;;;5.53;66.15
84043;BME280;74129;52.540;13.416;2024-01-27T19:52:10;102818.92;;;5.49;66.31
84043;BME280;74129;52.540;13.416;2024-01-27T19:54:42;102812.59;;;5.45;66.46
84043;BME280;74129;52.540;13.416;2024-01-27T19:57:48;102808.98;;;5.39;66.57
84043;BME280;74129;52.540;13.416;2024-01-27T20:00:39;102814.09;;;5.37;66.72
84043;BME280;74129;52.540;13.416;2024-01-27T20:06:05;102810.16;;;5.31;66.87
84043;BME280;74129;52.540;13.416;2024-01-27T20:09:14;102810.51;;;5.29;66.87
84043;BME280;74129;52.540;13.416;2024-01-27T20:12:47;102809.54;;;5.25;67.13
84043;BME280;74129;52.540;13.416;2024-01-27T20:15:47;102807.84;;;5.20;67.27
84043;BME280;74129;52.540;13.416;2024-01-27T20:21:41;102805.47;;;5.15;67.37
84043;BME280;74129;52.540;13.416;2024-01-27T20:24:54;102811.48;;;5.13;67.31
84043;BME280;74129;52.540;13.416;2024-01-27T20:30:52;102822.83;;;5.11;67.30
84043;BME280;74129;52.540;13.416;2024-01-27T20:34:28;102829.83;;;5.08;67.58
84043;BME280;74129;52.540;13.416;2024-01-27T20:37:17;102839.52;;;5.04;67.76
84043;BME280;74129;52.540;13.416;2024-01-27T20:47:01;102842.86;;;4.97;67.85
84043;BME280;74129;52.540;13.416;2024-01-27T20:50:08;102839.02;;;4.94;67.68
84043;BME280;74129;52.540;13.416;2024-01-27T20:53:04;102841.09;;;4.93;67.95
84043;BME280;74129;52.540;13.416;2024-01-27T20:55:43;102839.79;;;4.92;67.97
84043;BME280;74129;52.540;13.416;2024-01-27T20:58:37;102846.80;;;4.94;68.00
84043;BME280;74129;52.540;13.416;2024-01-27T21:01:23;102846.73;;;4.93;67.96
84043;BME280;74129;52.540;13.416;2024-01-27T21:04:10;102845.83;;;4.93;67.90
84043;BME280;74129;52.540;13.416;2024-01-27T21:07:03;102845.75;;;4.91;67.89
84043;BME280;74129;52.540;13.416;2024-01-27T21:09:54;102855.41;;;4.88;68.07
84043;BME280;74129;52.540;13.416;2024-01-27T21:15:13;102863.15;;;4.89;68.19
84043;BME280;74129;52.540;13.416;2024-01-27T21:17:55;102862.08;;;4.89;68.05
84043;BME280;74129;52.540;13.416;2024-01-27T21:20:37;102860.88;;;4.89;68.04
84043;BME280;74129;52.540;13.416;2024-01-27T21:23:30;102862.27;;;4.89;68.12
84043;BME280;74129;52.540;13.416;2024-01-27T21:26:11;102862.55;;;4.88;68.29
84043;BME280;74129;52.540;13.416;2024-01-27T21:29:04;102866.86;;;4.88;68.05
84043;BME280;74129;52.540;13.416;2024-01-27T21:31:43;102868.77;;;4.88;68.33
84043;BME280;74129;52.540;13.416;2024-01-27T21:34:38;102863.42;;;4.85;68.13
84043;BME280;74129;52.540;13.416;2024-01-27T21:37:20;102864.48;;;4.87;68.32
84043;BME280;74129;52.540;13.416;2024-01-27T21:40:02;102865.05;;;4.88;68.19
84043;BME280;74129;52.540;13.416;2024-01-27T21:42:48;102865.27;;;4.86;68.16
84043;BME280;74129;52.540;13.416;2024-01-27T21:48:21;102868.44;;;4.86;68.24
84043;BME280;74129;52.540;13.416;2024-01-27T21:50:57;102870.30;;;4.86;68.32
84043;BME280;74129;52.540;13.416;2024-01-27T21:53:51;102868.19;;;4.83;68.34
84043;BME280;74129;52.540;13.416;2024-01-27T21:56:49;102866.48;;;4.83;68.29
84043;BME280;74129;52.540;13.416;2024-01-27T21:59:35;102868.56;;;4.85;68.44
84043;BME280;74129;52.540;13.416;2024-01-27T22:05:18;102869.88;;;4.79;68.37
84043;BME280;74129;52.540;13.416;2024-01-27T22:08:09;102874.42;;;4.75;68.38